Time;durP1;ratioP1;P1;durP2;ratioP2;P2;SDS_P1;SDS_P2;PMS_P1;PMS_P2;Temp;Humidity;BMP_temperature;BMP_pressure;BME280_temperature;BME280_humidity;BME280_pressure;Samples;Min_cycle;Max_cycle;Signal;HPM_P1;HPM_P2
2023/03/08 00:01:51;;;;;;;1.00;0.90;;;17.60;41.20;;;;;;5136269;27;20697;-69
2023/03/08 00:04:18;;;;;;;1.58;1.10;;;17.60;41.20;;;;;;5136357;27;20188;-71
2023/03/08 00:06:45;;;;;;;0.85;0.82;;;17.60;41.20;;;;;;5136142;27;20185;-70
2023/03/08 00:09:12;;;;;;;1.35;1.00;;;17.60;41.20;;;;;;5136282;27;20674;-70
2023/03/08 00:11:39;;;;;;;1.15;1.00;;;17.60;41.20;;;;;;5136505;27;20526;-71
2023/03/08 00:14:06;;;;;;;0.88;0.80;;;17.60;41.20;;;;;;5134886;27;20674;-70
2023/03/08 00:16:36;;;;;;;1.17;1.08;;;17.50;41.10;;;;;;5136421;27;20185;-78
2023/03/08 00:19:03;;;;;;;1.45;1.00;;;17.50;41.10;;;;;;5136705;27;20184;-74
2023/03/08 00:21:30;;;;;;;1.40;1.00;;;17.60;41.30;;;;;;5136209;27;20233;-78
2023/03/08 00:23:57;;;;;;;1.27;1.00;;;17.50;41.20;;;;;;5136513;27;20690;-79
2023/03/08 00:26:26;;;;;;;0.82;0.82;;;17.50;41.10;;;;;;5136387;27;20604;-74
2023/03/08 00:28:53;;;;;;;1.25;1.15;;;17.50;41.20;;;;;;5136293;27;20209;-78
2023/03/08 00:31:21;;;;;;;0.77;0.77;;;17.50;41.20;;;;;;5136458;27;20184;-76
2023/03/08 00:33:53;;;;;;;1.10;0.90;;;17.50;41.20;;;;;;5136286;27;20265;-78
2023/03/08 00:36:21;;;;;;;1.13;0.93;;;17.50;41.30;;;;;;5134513;27;20622;-75
2023/03/08 00:38:50;;;;;;;1.15;0.93;;;17.40;41.20;;;;;;5134855;27;20645;-76
2023/03/08 00:41:17;;;;;;;0.93;0.88;;;17.50;41.30;;;;;;5136329;27;20212;-76
2023/03/08 00:43:45;;;;;;;0.80;0.75;;;17.50;41.30;;;;;;5136071;27;20216;-77
2023/03/08 00:46:13;;;;;;;0.80;0.77;;;17.50;41.30;;;;;;5135772;27;20192;-73
2023/03/08 00:48:40;;;;;;;1.00;0.80;;;17.50;41.30;;;;;;5136229;27;20209;-76
2023/03/08 00:51:11;;;;;;;1.58;1.08;;;17.50;41.30;;;;;;5135691;27;20209;-73
2023/03/08 00:53:40;;;;;;;0.80;0.80;;;17.50;41.30;;;;;;5135684;27;20212;-76
2023/03/08 00:56:08;;;;;;;1.10;1.00;;;17.40;41.30;;;;;;5135431;27;20693;-77
2023/03/08 00:58:38;;;;;;;1.25;0.80;;;17.50;41.40;;;;;;5136015;27;20216;-76
2023/03/08 01:01:06;;;;;;;0.82;0.80;;;17.40;41.30;;;;;;5135837;27;20187;-72
2023/03/08 01:03:33;;;;;;;0.80;0.80;;;17.40;41.30;;;;;;5135879;27;20212;-78
2023/03/08 01:06:06;;;;;;;1.15;1.00;;;17.40;41.30;;;;;;5135701;27;20193;-73
2023/03/08 01:08:36;;;;;;;1.23;1.05;;;17.40;41.40;;;;;;5135677;27;20212;-71
2023/03/08 01:11:03;;;;;;;1.10;0.80;;;17.40;41.40;;;;;;5135672;27;20188;-74
2023/03/08 01:13:34;;;;;;;1.10;1.00;;;17.40;41.40;;;;;;5135580;27;20208;-77
2023/03/08 01:16:02;;;;;;;1.00;0.90;;;17.40;41.40;;;;;;5135178;27;20238;-79
2023/03/08 01:18:29;;;;;;;1.33;0.85;;;17.40;41.50;;;;;;5135744;27;20265;-77
2023/03/08 01:20:58;;;;;;;0.80;0.70;;;17.40;41.50;;;;;;5135433;27;20195;-76
2023/03/08 01:23:25;;;;;;;0.77;0.77;;;17.40;41.50;;;;;;5135415;27;20208;-75
2023/03/08 01:26:00;;;;;;;0.75;0.75;;;17.40;41.50;;;;;;5133000;27;20197;-73
2023/03/08 01:28:27;;;;;;;0.90;0.90;;;17.30;41.50;;;;;;5114412;28;20694;-75
2023/03/08 01:30:55;;;;;;;1.17;0.98;;;17.30;41.50;;;;;;5114773;28;20193;-71
2023/03/08 01:33:23;;;;;;;1.00;0.90;;;17.40;41.60;;;;;;5114399;28;20217;-78
2023/03/08 01:35:52;;;;;;;1.00;0.88;;;17.30;41.50;;;;;;5114087;28;20304;-74
2023/03/08 01:38:19;;;;;;;0.80;0.80;;;17.30;41.50;;;;;;5113282;28;20217;-77
2023/03/08 01:40:46;;;;;;;0.80;0.80;;;17.30;41.50;;;;;;5114572;27;20621;-78
2023/03/08 01:43:25;;;;;;;1.42;0.80;;;17.30;41.50;;;;;;5113973;28;20703;-76
2023/03/08 01:46:07;;;;;;;1.15;1.05;;;17.30;42.20;;;;;;5114390;28;20242;-76
2023/03/08 01:48:39;;;;;;;1.00;0.90;;;17.30;41.60;;;;;;5114050;28;20262;-76
2023/03/08 01:51:12;;;;;;;1.10;1.00;;;17.30;41.60;;;;;;5113934;28;20197;-76
2023/03/08 01:53:42;;;;;;;0.80;0.77;;;17.30;41.60;;;;;;5114393;28;20217;-76
2023/03/08 01:56:12;;;;;;;1.10;1.00;;;17.30;41.60;;;;;;5114028;28;20217;-74
2023/03/08 01:58:44;;;;;;;0.90;0.90;;;17.30;41.60;;;;;;5113843;28;20783;-77
2023/03/08 02:01:11;;;;;;;0.80;0.80;;;17.30;41.70;;;;;;5113759;28;20186;-73
2023/03/08 02:03:38;;;;;;;0.82;0.82;;;17.30;41.80;;;;;;5114211;28;20213;-73
2023/03/08 02:06:08;;;;;;;1.20;0.85;;;17.20;41.70;;;;;;5113524;28;20189;-74
2023/03/08 02:08:35;;;;;;;0.80;0.70;;;17.30;41.80;;;;;;5114016;28;20217;-75
2023/03/08 02:11:03;;;;;;;0.98;0.88;;;17.30;41.80;;;;;;5113807;28;20556;-74
2023/03/08 02:13:31;;;;;;;0.80;0.80;;;17.30;41.80;;;;;;5113591;28;20570;-74
2023/03/08 02:16:03;;;;;;;0.80;0.80;;;17.20;41.80;;;;;;5113255;28;20563;-73
2023/03/08 02:18:30;;;;;;;1.30;1.20;;;17.30;41.90;;;;;;5113329;28;20217;-76
2023/03/08 02:20:57;;;;;;;1.20;1.10;;;17.30;41.80;;;;;;5113738;28;20238;-74
2023/03/08 02:23:26;;;;;;;1.10;0.88;;;17.20;41.80;;;;;;5113502;28;20259;-77
2023/03/08 02:25:55;;;;;;;1.10;1.00;;;17.20;41.80;;;;;;5113110;28;20726;-74
2023/03/08 02:28:25;;;;;;;0.80;0.80;;;17.20;41.80;;;;;;5113560;28;20212;-74
2023/03/08 02:30:53;;;;;;;1.02;1.00;;;17.30;41.90;;;;;;5113206;28;20720;-74
2023/03/08 02:33:22;;;;;;;0.95;0.90;;;17.20;41.80;;;;;;5113332;28;20217;-75
2023/03/08 02:35:49;;;;;;;1.00;0.90;;;17.20;41.90;;;;;;5113003;28;20209;-72
2023/03/08 02:38:18;;;;;;;0.80;0.80;;;17.20;41.90;;;;;;5113461;28;20217;-75
2023/03/08 02:40:47;;;;;;;1.00;0.88;;;17.20;41.90;;;;;;5113330;28;20607;-76
2023/03/08 02:43:14;;;;;;;0.80;0.80;;;17.20;41.90;;;;;;5113071;28;20694;-73
2023/03/08 02:45:41;;;;;;;1.00;0.68;;;17.20;42.00;;;;;;5112866;28;20710;-78
2023/03/08 02:48:09;;;;;;;0.90;0.90;;;17.20;42.00;;;;;;5112920;28;20217;-74
2023/03/08 02:50:36;;;;;;;1.02;0.80;;;17.20;42.00;;;;;;5113191;28;20732;-75
2023/03/08 02:53:04;;;;;;;0.90;0.90;;;17.20;42.00;;;;;;5113141;28;20581;-76
2023/03/08 02:55:34;;;;;;;1.27;0.90;;;17.20;42.00;;;;;;5112682;28;20250;-75
2023/03/08 02:58:03;;;;;;;1.10;0.90;;;17.20;42.10;;;;;;5112947;28;20566;-72
2023/03/08 03:00:31;;;;;;;1.00;0.90;;;17.20;42.10;;;;;;5112525;28;20186;-78
2023/03/08 03:02:58;;;;;;;1.00;1.00;;;17.20;42.10;;;;;;5112996;28;20687;-76
2023/03/08 03:05:25;;;;;;;1.23;0.95;;;17.20;42.10;;;;;;5112630;28;20192;-78
2023/03/08 03:07:54;;;;;;;0.80;0.80;;;17.20;42.20;;;;;;5113033;28;20563;-77
2023/03/08 03:10:22;;;;;;;0.73;0.73;;;17.20;42.20;;;;;;5112616;28;20185;-74
2023/03/08 03:12:49;;;;;;;0.80;0.80;;;17.20;42.20;;;;;;5112609;28;20690;-73
2023/03/08 03:15:18;;;;;;;1.00;0.90;;;17.20;42.30;;;;;;5112760;28;20221;-76
2023/03/08 03:17:46;;;;;;;1.92;0.88;;;17.20;42.30;;;;;;5113014;28;20217;-78
2023/03/08 03:20:14;;;;;;;0.80;0.80;;;17.10;42.20;;;;;;5112846;28;20540;-78
2023/03/08 03:22:41;;;;;;;1.30;0.98;;;17.20;42.30;;;;;;5112856;28;20209;-78
2023/03/08 03:25:09;;;;;;;0.82;0.82;;;17.20;42.40;;;;;;5112554;28;20715;-75
2023/03/08 03:27:37;;;;;;;1.20;0.90;;;17.20;42.40;;;;;;5112644;28;20238;-75
2023/03/08 03:30:06;;;;;;;1.25;1.15;;;17.10;42.30;;;;;;5112993;28;20186;-76
2023/03/08 03:32:36;;;;;;;0.70;0.65;;;17.10;42.40;;;;;;5112710;28;20217;-76
2023/03/08 03:35:04;;;;;;;1.08;0.98;;;17.10;42.40;;;;;;5112862;28;20242;-74
2023/03/08 03:37:34;;;;;;;1.10;0.98;;;17.10;42.40;;;;;;5112421;28;20278;-78
2023/03/08 03:40:03;;;;;;;1.08;0.90;;;17.10;42.50;;;;;;5113044;28;20189;-77
2023/03/08 03:42:30;;;;;;;0.77;0.77;;;17.20;42.50;;;;;;5112438;28;20270;-77
2023/03/08 03:44:57;;;;;;;0.88;0.80;;;17.20;42.60;;;;;;5113094;28;20196;-76
2023/03/08 03:47:24;;;;;;;0.82;0.82;;;17.10;42.50;;;;;;5112296;28;20217;-76
2023/03/08 03:49:53;;;;;;;1.25;0.85;;;17.10;42.50;;;;;;5112677;28;20182;-73
2023/03/08 03:52:20;;;;;;;0.90;0.70;;;17.10;42.50;;;;;;5112641;28;20185;-78
2023/03/08 03:54:47;;;;;;;0.95;0.90;;;17.10;42.60;;;;;;5112639;28;20193;-71
2023/03/08 03:57:15;;;;;;;1.02;0.90;;;17.10;42.60;;;;;;5112169;28;20622;-73
2023/03/08 03:59:43;;;;;;;0.93;0.88;;;17.10;42.70;;;;;;5112598;28;20651;-76
2023/03/08 04:02:11;;;;;;;0.80;0.80;;;17.10;42.70;;;;;;5112378;28;20325;-75
2023/03/08 04:04:38;;;;;;;0.80;0.80;;;17.10;42.70;;;;;;5112194;28;20555;-72
2023/03/08 04:07:07;;;;;;;1.10;1.00;;;17.10;43.40;;;;;;5112162;28;20235;-73
2023/03/08 04:09:35;;;;;;;1.35;0.88;;;17.10;42.80;;;;;;5112420;28;20190;-77
2023/03/08 04:12:04;;;;;;;1.55;0.90;;;17.10;42.90;;;;;;5112319;28;20190;-75
2023/03/08 04:14:31;;;;;;;1.25;0.90;;;17.10;42.90;;;;;;5115091;28;20671;-76
2023/03/08 04:16:58;;;;;;;1.60;0.90;;;17.10;43.00;;;;;;5116012;28;20212;-76
2023/03/08 04:19:25;;;;;;;1.30;0.90;;;17.10;43.00;;;;;;5116287;28;20648;-77
2023/03/08 04:21:53;;;;;;;1.60;0.90;;;17.10;43.00;;;;;;5116095;28;20186;-70
2023/03/08 04:24:22;;;;;;;0.75;0.75;;;17.10;43.00;;;;;;5115979;28;20262;-75
2023/03/08 04:26:50;;;;;;;1.30;0.90;;;17.10;43.10;;;;;;5115934;28;20185;-78
2023/03/08 04:29:17;;;;;;;1.30;1.00;;;17.10;43.10;;;;;;5116064;28;20220;-78
2023/03/08 04:31:45;;;;;;;2.35;0.90;;;17.10;43.10;;;;;;5115736;28;20644;-74
2023/03/08 04:34:13;;;;;;;2.95;1.10;;;17.10;43.30;;;;;;5115984;28;20270;-74
2023/03/08 04:36:40;;;;;;;1.52;1.10;;;17.10;43.30;;;;;;5115137;28;20236;-77
2023/03/08 04:39:07;;;;;;;3.25;1.10;;;17.10;43.30;;;;;;5115801;28;20217;-72
2023/03/08 04:41:36;;;;;;;2.78;1.10;;;17.10;43.40;;;;;;5115186;28;20243;-73
2023/03/08 04:44:03;;;;;;;3.40;1.27;;;17.10;43.50;;;;;;5115028;28;20217;-72
2023/03/08 04:46:30;;;;;;;1.95;1.10;;;17.10;43.60;;;;;;5115021;28;20642;-75
2023/03/08 04:48:57;;;;;;;1.88;1.13;;;17.10;43.60;;;;;;5115198;28;20770;-77
2023/03/08 04:51:26;;;;;;;2.67;1.13;;;17.10;43.70;;;;;;5115235;28;20325;-75
2023/03/08 04:53:54;;;;;;;4.40;1.60;;;17.10;43.70;;;;;;5115183;28;20221;-76
2023/03/08 04:56:21;;;;;;;3.83;1.25;;;17.10;43.80;;;;;;5114714;28;20266;-70
2023/03/08 04:58:50;;;;;;;3.85;1.40;;;17.10;43.70;;;;;;5115111;28;20649;-77
2023/03/08 05:01:21;;;;;;;6.63;1.73;;;17.10;43.80;;;;;;5114676;28;20186;-77
2023/03/08 05:03:49;;;;;;;5.60;1.75;;;17.10;43.80;;;;;;5115138;27;20223;-72
2023/03/08 05:06:16;;;;;;;6.95;2.00;;;17.10;43.80;;;;;;5114626;28;20185;-76
2023/03/08 05:08:44;;;;;;;5.85;2.00;;;17.10;43.80;;;;;;5114718;28;20702;-78
2023/03/08 05:11:17;;;;;;;5.35;1.77;;;17.10;44.40;;;;;;5114910;28;20185;-77
2023/03/08 05:13:44;;;;;;;5.55;1.70;;;17.10;43.90;;;;;;5114754;28;20209;-72
2023/03/08 05:16:14;;;;;;;8.75;2.42;;;17.10;43.90;;;;;;5114487;28;20270;-70
2023/03/08 05:18:41;;;;;;;5.88;1.85;;;17.10;43.90;;;;;;5114484;28;20223;-75
2023/03/08 05:21:11;;;;;;;7.78;2.10;;;17.10;43.90;;;;;;5114734;27;20194;-76
2023/03/08 05:23:39;;;;;;;8.23;2.42;;;17.10;44.30;;;;;;5113884;28;20642;-75
2023/03/08 05:26:07;;;;;;;9.95;2.42;;;17.10;44.30;;;;;;5114489;28;20189;-74
2023/03/08 05:28:36;;;;;;;10.07;2.60;;;17.10;44.40;;;;;;5114301;28;20694;-73
2023/03/08 05:31:06;;;;;;;8.18;2.28;;;17.10;44.40;;;;;;5114383;28;20194;-72
2023/03/08 05:33:35;;;;;;;8.85;2.50;;;17.10;44.50;;;;;;5114180;28;20209;-75
2023/03/08 05:36:03;;;;;;;8.52;2.38;;;17.10;44.60;;;;;;5113786;28;20225;-74
2023/03/08 05:38:30;;;;;;;8.70;2.70;;;17.10;44.50;;;;;;5114015;28;20740;-70
2023/03/08 05:41:00;;;;;;;9.23;2.40;;;17.10;44.50;;;;;;5114500;28;20198;-76
2023/03/08 05:43:28;;;;;;;14.50;2.97;;;17.10;44.50;;;;;;5112719;28;20715;-74
2023/03/08 05:45:56;;;;;;;10.10;2.78;;;17.10;44.60;;;;;;5114195;28;20193;-77
2023/03/08 05:48:24;;;;;;;10.93;2.55;;;17.10;44.50;;;;;;5113754;28;20295;-78
2023/03/08 05:50:53;;;;;;;9.63;2.85;;;17.10;44.50;;;;;;5114154;28;20189;-74
2023/03/08 05:53:21;;;;;;;9.48;2.65;;;17.10;44.60;;;;;;5114077;28;20209;-76
2023/03/08 05:55:48;;;;;;;10.18;2.88;;;17.10;44.60;;;;;;5113903;28;20185;-72
2023/03/08 05:58:16;;;;;;;11.48;2.65;;;17.10;44.70;;;;;;5114018;28;20217;-71
2023/03/08 06:00:43;;;;;;;9.93;2.55;;;17.10;44.70;;;;;;5113897;28;20278;-73
2023/03/08 06:03:10;;;;;;;13.52;3.53;;;17.10;44.70;;;;;;5113641;28;20614;-74
2023/03/08 06:05:37;;;;;;;10.00;2.85;;;17.20;44.70;;;;;;5113849;28;20189;-74
2023/03/08 06:08:06;;;;;;;11.63;2.97;;;17.20;45.40;;;;;;5113891;28;20265;-75
2023/03/08 06:10:33;;;;;;;13.95;3.10;;;17.20;44.70;;;;;;5113828;28;20190;-77
2023/03/08 06:13:02;;;;;;;8.82;3.03;;;17.20;45.40;;;;;;5113294;28;20747;-75
2023/03/08 06:15:29;;;;;;;13.32;3.60;;;17.30;44.70;;;;;;5113716;28;20566;-78
2023/03/08 06:17:56;;;;;;;14.23;3.50;;;17.30;44.60;;;;;;5113172;28;20635;-72
2023/03/08 06:20:23;;;;;;;10.65;3.30;;;17.30;44.60;;;;;;5113056;28;20708;-77
2023/03/08 06:22:50;;;;;;;13.75;3.28;;;17.30;44.50;;;;;;5113490;28;20217;-74
2023/03/08 06:25:19;;;;;;;13.93;3.05;;;17.30;44.50;;;;;;5113400;28;20194;-71
2023/03/08 06:27:46;;;;;;;14.20;3.65;;;17.30;44.50;;;;;;5113210;28;20221;-71
2023/03/08 06:30:14;;;;;;;10.65;3.42;;;17.40;44.60;;;;;;5113318;28;20186;-77
2023/03/08 06:32:41;;;;;;;11.95;3.33;;;17.40;44.50;;;;;;5112984;28;20700;-71
2023/03/08 06:35:09;;;;;;;14.93;3.60;;;17.40;44.50;;;;;;5113008;28;20255;-79
2023/03/08 06:37:36;;;;;;;12.27;3.30;;;17.40;44.60;;;;;;5112406;28;20233;-78
2023/03/08 06:40:07;;;;;;;12.48;3.25;;;17.40;44.30;;;;;;5113188;28;20536;-75
2023/03/08 06:42:36;;;;;;;13.32;3.88;;;17.50;44.50;;;;;;5112886;28;20228;-76
2023/03/08 06:45:04;;;;;;;9.00;2.88;;;17.50;44.40;;;;;;5113065;28;20189;-78
2023/03/08 06:47:31;;;;;;;9.02;3.13;;;17.50;44.30;;;;;;5113024;28;20534;-72
2023/03/08 06:49:58;;;;;;;11.82;3.22;;;17.50;44.30;;;;;;5113044;28;20604;-73
2023/03/08 06:52:26;;;;;;;14.57;3.42;;;17.50;44.30;;;;;;5112941;28;20185;-76
2023/03/08 06:54:53;;;;;;;12.07;3.00;;;17.50;44.30;;;;;;5113075;28;20290;-73
2023/03/08 06:57:20;;;;;;;12.30;3.80;;;17.50;44.40;;;;;;5112727;28;20294;-78
2023/03/08 06:59:48;;;;;;;9.82;3.15;;;17.60;44.40;;;;;;5112619;28;20266;-70
2023/03/08 07:02:16;;;;;;;14.45;3.58;;;17.60;44.40;;;;;;5112606;28;20185;-73
2023/03/08 07:04:43;;;;;;;14.48;3.67;;;17.60;44.30;;;;;;5112786;28;20238;-75
2023/03/08 07:07:10;;;;;;;12.05;3.80;;;17.60;44.40;;;;;;5112918;28;20185;-74
2023/03/08 07:09:37;;;;;;;17.10;3.58;;;17.60;45.30;;;;;;5112448;28;20763;-77
2023/03/08 07:12:05;;;;;;;13.63;3.88;;;17.60;45.50;;;;;;5108114;28;20603;-74
2023/03/08 07:14:33;;;;;;;13.50;3.83;;;17.70;45.30;;;;;;5115950;27;20854;-75
2023/03/08 07:17:02;;;;;;;12.80;3.28;;;17.70;45.10;;;;;;5114045;28;20262;-75
2023/03/08 07:19:31;;;;;;;15.68;4.03;;;17.70;45.10;;;;;;5133244;28;20224;-74
2023/03/08 07:21:58;;;;;;;14.93;4.07;;;17.80;45.10;;;;;;5121696;27;20250;-77
2023/03/08 07:24:25;;;;;;;12.50;3.35;;;17.80;45.10;;;;;;5112630;28;20213;-78
2023/03/08 07:26:53;;;;;;;14.10;3.42;;;17.80;45.10;;;;;;5111076;28;20738;-77
2023/03/08 07:29:20;;;;;;;15.45;3.85;;;17.90;45.40;;;;;;5121601;28;20244;-73
2023/03/08 07:31:48;;;;;;;14.82;3.75;;;17.90;45.30;;;;;;5130988;28;20588;-76
2023/03/08 07:34:17;;;;;;;13.98;3.90;;;17.90;45.30;;;;;;5133306;27;20220;-72
2023/03/08 07:36:44;;;;;;;11.75;3.75;;;17.90;45.30;;;;;;5133131;27;20315;-76
2023/03/08 07:39:11;;;;;;;14.65;3.72;;;17.90;45.30;;;;;;5125592;27;20334;-78
2023/03/08 07:41:38;;;;;;;14.15;3.65;;;18.00;45.40;;;;;;5129350;27;20204;-81
2023/03/08 07:44:06;;;;;;;15.30;3.60;;;18.00;45.50;;;;;;5120481;27;20224;-80
2023/03/08 07:46:34;;;;;;;12.57;3.28;;;18.10;45.60;;;;;;5117613;27;20196;-81
2023/03/08 07:49:09;;;;;;;12.70;3.42;;;18.10;45.60;;;;;;5137607;27;20284;-79
2023/03/08 07:51:37;;;;;;;14.32;3.60;;;18.10;45.60;;;;;;5135937;27;20190;-80
2023/03/08 07:54:04;;;;;;;14.88;3.58;;;18.20;45.60;;;;;;5134481;27;20304;-79
2023/03/08 07:56:32;;;;;;;13.80;3.85;;;18.20;45.70;;;;;;5119322;27;20739;-78
2023/03/08 07:58:59;;;;;;;13.50;4.03;;;18.20;45.70;;;;;;5129994;27;20224;-77
2023/03/08 08:01:26;;;;;;;17.90;4.32;;;18.30;46.20;;;;;;5117867;27;20258;-76
2023/03/08 08:03:54;;;;;;;18.35;4.13;;;18.30;46.30;;;;;;5115315;28;20213;-76
2023/03/08 08:06:21;;;;;;;13.90;4.05;;;18.30;46.00;;;;;;5114776;28;20642;-77
2023/03/08 08:08:49;;;;;;;22.63;4.47;;;18.30;46.30;;;;;;5123423;27;20272;-75
2023/03/08 08:11:18;;;;;;;16.65;4.10;;;18.30;46.10;;;;;;5114678;27;20197;-79
2023/03/08 08:13:46;;;;;;;15.88;4.70;;;18.40;46.00;;;;;;5129886;27;20296;-78
2023/03/08 08:16:14;;;;;;;19.73;5.10;;;18.40;46.10;;;;;;5137382;27;20188;-77
2023/03/08 08:18:42;;;;;;;19.17;4.75;;;18.40;46.30;;;;;;5133696;27;20228;-73
2023/03/08 08:21:11;;;;;;;17.65;3.95;;;18.40;46.10;;;;;;5135400;27;20187;-68
2023/03/08 08:23:40;;;;;;;18.80;4.85;;;18.40;46.40;;;;;;5134605;27;20236;-69
2023/03/08 08:26:12;;;;;;;14.32;3.83;;;18.40;46.20;;;;;;5134864;27;20241;-74
2023/03/08 08:28:41;;;;;;;21.27;4.30;;;18.40;46.10;;;;;;5134830;27;20220;-69
2023/03/08 08:31:11;;;;;;;16.90;4.63;;;18.40;46.00;;;;;;5137312;27;20185;-70
2023/03/08 08:33:39;;;;;;;21.75;5.50;;;18.40;45.90;;;;;;5135124;27;20280;-70
2023/03/08 08:36:09;;;;;;;16.20;4.43;;;18.40;46.00;;;;;;5134947;27;20200;-71
2023/03/08 08:38:36;;;;;;;20.00;4.40;;;18.50;46.80;;;;;;5133313;27;20224;-73
2023/03/08 08:41:06;;;;;;;16.75;4.40;;;18.50;46.40;;;;;;5134509;27;20253;-71
2023/03/08 08:43:36;;;;;;;17.27;3.97;;;18.50;46.20;;;;;;5134092;27;20782;-75
2023/03/08 08:46:05;;;;;;;20.42;4.72;;;18.50;46.30;;;;;;5136123;27;20196;-69
2023/03/08 08:48:32;;;;;;;18.55;4.32;;;18.50;46.20;;;;;;5134220;27;20641;-71
2023/03/08 08:51:01;;;;;;;24.45;5.60;;;18.60;46.10;;;;;;5134798;27;20246;-69
2023/03/08 08:53:28;;;;;;;14.70;4.05;;;18.60;46.20;;;;;;5134701;27;20218;-71
2023/03/08 08:55:55;;;;;;;21.65;4.60;;;18.60;46.10;;;;;;5134729;27;20185;-73
2023/03/08 08:58:23;;;;;;;19.08;4.38;;;18.60;46.10;;;;;;5135110;27;20710;-72
2023/03/08 09:00:52;;;;;;;20.73;4.70;;;18.60;46.10;;;;;;5134355;27;20245;-70
2023/03/08 09:03:19;;;;;;;21.58;5.38;;;18.60;46.10;;;;;;5134116;27;20196;-70
2023/03/08 09:05:46;;;;;;;18.50;4.28;;;18.60;46.20;;;;;;5134486;27;20189;-73
2023/03/08 09:08:13;;;;;;;21.00;4.85;;;18.60;46.10;;;;;;5135026;27;20184;-80
2023/03/08 09:10:41;;;;;;;21.60;4.90;;;18.70;46.80;;;;;;5133952;27;20189;-73
2023/03/08 09:13:08;;;;;;;19.45;4.50;;;18.70;46.30;;;;;;5133852;27;20226;-72
2023/03/08 09:15:36;;;;;;;15.98;4.60;;;18.70;46.20;;;;;;5133248;27;20271;-72
2023/03/08 09:18:06;;;;;;;15.95;4.88;;;18.70;46.20;;;;;;5134173;27;20216;-79
2023/03/08 09:20:33;;;;;;;18.42;4.97;;;18.70;46.20;;;;;;5133859;27;20228;-74
2023/03/08 09:23:00;;;;;;;19.20;4.57;;;18.70;46.10;;;;;;5133906;27;20200;-77
2023/03/08 09:25:27;;;;;;;18.80;4.15;;;18.80;46.30;;;;;;5134038;27;20212;-77
2023/03/08 09:27:54;;;;;;;22.63;5.13;;;18.70;46.20;;;;;;5131889;27;20788;-75
2023/03/08 09:30:22;;;;;;;20.20;4.25;;;18.80;46.40;;;;;;5117937;27;20270;-79
2023/03/08 09:32:49;;;;;;;19.98;4.47;;;18.80;46.80;;;;;;5129543;27;20192;-76
2023/03/08 09:35:18;;;;;;;21.10;4.82;;;18.80;46.40;;;;;;5134440;27;20702;-77
2023/03/08 09:37:46;;;;;;;19.65;4.55;;;18.80;46.50;;;;;;5127072;27;20244;-77
2023/03/08 09:40:20;;;;;;;17.88;4.38;;;18.80;46.80;;;;;;5115339;27;20262;-79
2023/03/08 09:42:48;;;;;;;29.55;5.07;;;18.80;46.90;;;;;;5110453;27;20197;-81
2023/03/08 09:45:24;;;;;;;18.88;4.00;;;18.80;46.70;;;;;;5124998;27;20220;-73
2023/03/08 09:48:03;;;;;;;19.15;4.65;;;18.80;47.10;;;;;;5119069;27;20223;-75
2023/03/08 09:50:42;;;;;;;16.95;4.68;;;18.80;46.90;;;;;;5133442;27;20230;-79
2023/03/08 09:53:27;;;;;;;19.00;4.70;;;18.80;47.00;;;;;;5133460;27;20191;-75
2023/03/08 09:55:58;;;;;;;19.15;4.55;;;18.80;46.90;;;;;;5132657;27;20237;-76
2023/03/08 09:58:41;;;;;;;17.58;4.90;;;18.80;46.80;;;;;;5133321;27;20212;-72
2023/03/08 10:01:28;;;;;;;20.35;4.72;;;18.80;46.80;;;;;;5132911;27;20184;-78
2023/03/08 10:04:15;;;;;;;19.30;4.97;;;18.80;46.80;;;;;;5112187;27;20698;-78
2023/03/08 10:06:50;;;;;;;22.90;4.43;;;18.80;46.80;;;;;;5114023;27;20829;-78
2023/03/08 10:09:30;;;;;;;17.90;4.32;;;18.80;46.80;;;;;;5124618;27;20302;-77
2023/03/08 10:12:03;;;;;;;22.48;4.82;;;18.80;46.80;;;;;;5125362;27;20192;-72
2023/03/08 10:14:32;;;;;;;18.83;4.70;;;18.80;46.80;;;;;;5132648;27;20216;-75
2023/03/08 10:17:04;;;;;;;24.88;5.50;;;18.80;46.90;;;;;;5125674;27;20254;-73
2023/03/08 10:19:37;;;;;;;19.90;4.90;;;18.80;47.00;;;;;;5118347;27;20235;-75
2023/03/08 10:22:12;;;;;;;23.27;5.60;;;18.80;47.10;;;;;;5112169;28;20193;-77
2023/03/08 10:24:45;;;;;;;19.25;4.72;;;18.80;47.20;;;;;;5112555;28;20216;-77
2023/03/08 10:27:20;;;;;;;26.83;4.85;;;18.80;47.40;;;;;;5120858;27;20229;-76
2023/03/08 10:29:51;;;;;;;23.95;5.03;;;18.80;47.50;;;;;;5134619;27;20215;-73
2023/03/08 10:32:18;;;;;;;18.65;4.50;;;18.80;47.60;;;;;;5116549;28;20223;-75
2023/03/08 10:34:46;;;;;;;20.55;4.85;;;18.80;47.60;;;;;;5114517;28;20216;-75
2023/03/08 10:37:15;;;;;;;24.70;4.93;;;18.80;47.70;;;;;;5114979;28;20726;-73
2023/03/08 10:39:52;;;;;;;19.40;4.50;;;18.80;47.70;;;;;;5114960;28;20221;-81
2023/03/08 10:42:23;;;;;;;23.55;5.70;;;18.80;47.50;;;;;;5115148;28;20643;-75
2023/03/08 10:44:57;;;;;;;19.30;5.15;;;18.90;47.70;;;;;;5113980;28;20243;-73
2023/03/08 10:47:27;;;;;;;19.98;4.65;;;18.80;47.60;;;;;;5115875;27;20222;-75
2023/03/08 10:50:11;;;;;;;16.27;4.47;;;18.80;47.60;;;;;;5133478;27;20626;-76
2023/03/08 10:52:40;;;;;;;17.02;4.38;;;18.80;47.60;;;;;;5136137;27;20193;-75
2023/03/08 10:55:12;;;;;;;26.08;5.40;;;18.80;47.50;;;;;;5136500;27;20212;-74
2023/03/08 10:57:40;;;;;;;17.27;4.65;;;18.80;47.60;;;;;;5136462;27;20234;-76
2023/03/08 11:00:28;;;;;;;22.45;5.60;;;18.90;47.60;;;;;;5137924;27;20212;-77
2023/03/08 11:03:04;;;;;;;21.45;5.28;;;18.90;47.70;;;;;;5137097;27;20205;-77
2023/03/08 11:05:31;;;;;;;23.48;5.30;;;18.90;47.70;;;;;;5137640;27;20264;-74
2023/03/08 11:08:00;;;;;;;20.98;5.25;;;18.90;47.70;;;;;;5139701;27;20723;-77
2023/03/08 11:10:30;;;;;;;25.83;5.32;;;18.90;47.60;;;;;;5119934;27;20220;-80
2023/03/08 11:13:09;;;;;;;20.20;4.90;;;18.90;47.70;;;;;;5119161;28;20322;-80
2023/03/08 11:15:40;;;;;;;22.50;4.85;;;18.90;47.70;;;;;;5132082;28;20236;-76
2023/03/08 11:18:28;;;;;;;18.85;4.75;;;18.90;47.70;;;;;;5128392;28;20213;-77
2023/03/08 11:20:59;;;;;;;16.70;4.43;;;18.90;47.70;;;;;;5134743;27;20221;-77
2023/03/08 11:23:35;;;;;;;16.52;4.70;;;18.90;47.70;;;;;;5130270;27;20201;-74
2023/03/08 11:26:12;;;;;;;19.85;4.53;;;18.90;47.70;;;;;;5127183;27;20301;-74
2023/03/08 11:28:51;;;;;;;17.65;5.22;;;18.90;47.70;;;;;;5133746;27;20606;-76
2023/03/08 11:31:25;;;;;;;21.23;4.93;;;18.90;47.70;;;;;;5135000;27;20200;-76
2023/03/08 11:34:25;;;;;;;17.60;4.72;;;18.90;47.70;;;;;;5125279;27;20192;-76
2023/03/08 11:37:02;;;;;;;18.48;5.43;;;19.00;47.70;;;;;;5134442;27;20232;-75
2023/03/08 11:39:33;;;;;;;15.23;4.18;;;19.00;47.70;;;;;;5145436;27;20231;-77
2023/03/08 11:42:09;;;;;;;16.45;4.80;;;19.00;47.70;;;;;;5137378;27;20249;-77
2023/03/08 11:44:51;;;;;;;18.80;4.93;;;19.00;47.60;;;;;;5133515;27;20319;-73
2023/03/08 11:47:51;;;;;;;16.38;4.32;;;19.00;48.00;;;;;;5131570;27;20241;-72
2023/03/08 11:50:23;;;;;;;16.25;4.40;;;19.00;48.10;;;;;;5129080;27;20573;-70
2023/03/08 11:53:00;;;;;;;15.65;4.68;;;19.00;47.90;;;;;;5134008;27;20596;-77
2023/03/08 11:55:57;;;;;;;18.17;5.00;;;19.00;47.70;;;;;;5125165;27;20307;-73
2023/03/08 11:58:31;;;;;;;16.55;4.93;;;19.10;47.70;;;;;;5114994;27;20225;-72
2023/03/08 12:01:02;;;;;;;19.80;4.70;;;19.10;47.60;;;;;;5128627;27;20259;-75
2023/03/08 12:03:34;;;;;;;19.13;5.00;;;19.10;47.50;;;;;;5137789;27;20195;-72
2023/03/08 12:06:10;;;;;;;18.48;4.70;;;19.10;47.50;;;;;;5126952;27;20242;-75
2023/03/08 12:08:41;;;;;;;17.67;4.55;;;19.10;47.60;;;;;;5125755;28;20185;-77
2023/03/08 12:11:17;;;;;;;14.95;4.68;;;19.10;47.40;;;;;;5117146;28;20221;-74
2023/03/08 12:13:47;;;;;;;16.67;4.95;;;19.10;48.30;;;;;;5114881;27;20253;-75
2023/03/08 12:16:19;;;;;;;13.75;4.18;;;19.10;47.60;;;;;;5115684;28;20751;-72
2023/03/08 12:18:53;;;;;;;17.85;4.70;;;19.10;47.50;;;;;;5115176;27;20209;-72
2023/03/08 12:21:30;;;;;;;19.70;4.53;;;19.10;47.40;;;;;;5115321;28;20266;-74
2023/03/08 12:24:09;;;;;;;15.50;4.25;;;19.10;47.50;;;;;;5115210;28;20186;-73
2023/03/08 12:26:44;;;;;;;19.17;5.40;;;19.10;47.40;;;;;;5115263;28;20646;-72
2023/03/08 12:29:18;;;;;;;19.55;4.90;;;19.10;47.40;;;;;;5115214;28;20242;-76
2023/03/08 12:31:47;;;;;;;15.75;4.78;;;19.10;47.50;;;;;;5113944;27;20196;-71
2023/03/08 12:34:26;;;;;;;25.38;5.13;;;19.10;47.50;;;;;;5128279;27;20720;-73
2023/03/08 12:36:54;;;;;;;20.30;5.13;;;19.20;48.20;;;;;;5134807;27;20713;-73
2023/03/08 12:39:27;;;;;;;17.95;4.40;;;19.20;48.10;;;;;;5135296;27;20230;-74
2023/03/08 12:42:02;;;;;;;13.77;4.72;;;19.20;48.00;;;;;;5134927;27;20245;-76
2023/03/08 12:44:30;;;;;;;17.38;4.45;;;19.30;48.20;;;;;;5135138;27;20212;-72
2023/03/08 12:47:01;;;;;;;19.92;4.82;;;19.30;48.40;;;;;;5129917;27;20193;-72
2023/03/08 12:49:32;;;;;;;17.70;4.97;;;19.40;48.50;;;;;;5119174;27;20677;-75
2023/03/08 12:52:04;;;;;;;15.35;4.85;;;19.40;48.40;;;;;;5133681;27;20289;-72
2023/03/08 12:54:33;;;;;;;14.90;4.30;;;19.50;48.70;;;;;;5131924;27;20231;-69